Petros, Tennessee
Current Conditions -  °F | °C
As of 11:53 AM on Friday 31 Oct 2014 (Local Time) from KOQT Reporting Station
Overcast Overcast  
Wind Chill: 50°   Ceiling: 5500
Heat Index: 50°   Visibility: 10mi
Dew Point: 43°   Wind: 3mph
Humidity: 77%   Direction: NA
Pressure: 29.99"   Gusts: NA
Location:  36.1°N, 84.44°W
Report Text: KOQT 311553Z AUTO VRB03KT 10SM OVC055 10/06 A2999 RMK AO2 RAB33E43 SLP159 P0000 T01000061
Loading
Personal Weather Stations






























Interactive Weather Map
Tropical Storm Tracking
New forecast layout! Learn more

10-Day Weather Forecast

Advertisements
Track Severe Weather on mobile